地図

経路データ

SID SEASON NUMBER BASIN SUBBASIN NAME ISO_TIME NATURE LAT LON WMO_WIND WMO_PRES WMO_AGENCY TRACK_TYPE DIST2LAND LANDFALL IFLAG USA_AGENCY USA_ATCF_ID USA_LAT USA_LON USA_RECORD USA_STATUS USA_WIND USA_PRES USA_SSHS USA_R34_NE USA_R34_SE USA_R34_SW USA_R34_NW USA_R50_NE USA_R50_SE USA_R50_SW USA_R50_NW USA_R64_NE USA_R64_SE USA_R64_SW USA_R64_NW USA_POCI USA_ROCI USA_RMW USA_EYE TOKYO_LAT TOKYO_LON TOKYO_GRADE TOKYO_WIND TOKYO_PRES TOKYO_R50_DIR TOKYO_R50_LONG TOKYO_R50_SHORT TOKYO_R30_DIR TOKYO_R30_LONG TOKYO_R30_SHORT TOKYO_LAND CMA_LAT CMA_LON CMA_CAT CMA_WIND CMA_PRES HKO_LAT HKO_LON HKO_CAT HKO_WIND HKO_PRES NEWDELHI_LAT NEWDELHI_LON NEWDELHI_GRADE NEWDELHI_WIND NEWDELHI_PRES NEWDELHI_CI NEWDELHI_DP NEWDELHI_POCI REUNION_LAT REUNION_LON REUNION_TYPE REUNION_WIND REUNION_PRES REUNION_TNUM REUNION_CI REUNION_RMW REUNION_R34_NE REUNION_R34_SE REUNION_R34_SW REUNION_R34_NW REUNION_R50_NE REUNION_R50_SE REUNION_R50_SW REUNION_R50_NW REUNION_R64_NE REUNION_R64_SE REUNION_R64_SW REUNION_R64_NW BOM_LAT BOM_LON BOM_TYPE BOM_WIND BOM_PRES BOM_TNUM BOM_CI BOM_RMW BOM_R34_NE BOM_R34_SE BOM_R34_SW BOM_R34_NW BOM_R50_NE BOM_R50_SE BOM_R50_SW BOM_R50_NW BOM_R64_NE BOM_R64_SE BOM_R64_SW BOM_R64_NW BOM_ROCI BOM_POCI BOM_EYE BOM_POS_METHOD BOM_PRES_METHOD NADI_LAT NADI_LON NADI_CAT NADI_WIND NADI_PRES WELLINGTON_LAT WELLINGTON_LON WELLINGTON_WIND WELLINGTON_PRES DS824_LAT DS824_LON DS824_STAGE DS824_WIND DS824_PRES TD9636_LAT TD9636_LON TD9636_STAGE TD9636_WIND TD9636_PRES TD9635_LAT TD9635_LON TD9635_WIND TD9635_PRES TD9635_ROCI NEUMANN_LAT NEUMANN_LON NEUMANN_CLASS NEUMANN_WIND NEUMANN_PRES MLC_LAT MLC_LON MLC_CLASS MLC_WIND MLC_PRES USA_GUST BOM_GUST BOM_GUST_PER REUNION_GUST REUNION_GUST_PER USA_SEAHGT USA_SEARAD_NE USA_SEARAD_SE USA_SEARAD_SW USA_SEARAD_NW STORM_SPEED STORM_DIR
1999219N25142 1999 59 WP MM NOT_NAMED 1999-08-07 00:00:00 NR 25.1000 141.500 main 1078 1068 O_____________ jtwc_wp WP141999 25.1000 141.500 25 -1 2 339
1999219N25142 1999 59 WP MM NOT_NAMED 1999-08-07 03:00:00 NR 25.1975 141.450 main 1068 1053 P_____________ WP141999 25.1975 141.450 25 -1 2 335
1999219N25142 1999 59 WP MM NOT_NAMED 1999-08-07 06:00:00 NR 25.3000 141.400 main 1053 1043 O_____________ jtwc_wp WP141999 25.3000 141.400 25 -1 2 338
1999219N25142 1999 59 WP MM NOT_NAMED 1999-08-07 09:00:00 NR 25.4075 141.350 main 1043 1029 P_____________ WP141999 25.4075 141.350 25 -1 2 335
1999219N25142 1999 59 WP MM NOT_NAMED 1999-08-07 12:00:00 NR 25.5000 141.300 main 1029 1024 O_____________ jtwc_wp WP141999 25.5000 141.300 25 -1 2 326
1999219N25142 1999 59 WP MM NOT_NAMED 1999-08-07 15:00:00 NR 25.5500 141.242 main 1014 1014 P_____________ WP141999 25.5500 141.242 25 -1 1 320
1999219N25142 1999 59 WP MM NOT_NAMED 1999-08-07 18:00:00 NR 25.6000 141.200 main 1014 1004 O_____________ jtwc_wp WP141999 25.6000 141.200 25 -1 1 344
1999219N25142 1999 59 WP MM NOT_NAMED 1999-08-07 21:00:00 NR 25.6925 141.200 main 1004 995 P_____________ WP141999 25.6925 141.200 25 -1 2 8
1999219N25142 1999 59 WP MM NOT_NAMED 1999-08-08 00:00:00 NR 25.8000 141.200 main 995 985 O_____________ jtwc_wp WP141999 25.8000 141.200 25 -1 2 347
1999219N25142 1999 59 WP MM NOT_NAMED 1999-08-08 03:00:00 NR 25.8775 141.150 main 985 970 P_____________ WP141999 25.8775 141.150 22 -1 2 335
1999219N25142 1999 59 WP MM NOT_NAMED 1999-08-08 06:00:00 NR 26.0000 141.100 main 970 951 O_____________ jtwc_wp WP141999 26.0000 141.100 20 -1 3 352
1999219N25142 1999 59 WP MM NOT_NAMED 1999-08-08 09:00:00 NR 26.2125 141.100 main 951 923 P_____________ WP141999 26.2125 141.100 22 -1 5 2
1999219N25142 1999 59 WP MM NOT_NAMED 1999-08-08 12:00:00 NR 26.5000 141.100 main 923 904 O_____________ jtwc_wp WP141999 26.5000 141.100 25 -1 5 0
1999219N25142 1999 59 WP MM NOT_NAMED 1999-08-08 15:00:00 NR 26.7522 141.131 main 895 851 P_____________ WP141999 26.7522 141.131 25 -1 7 353
1999219N25142 1999 59 WP MM NOT_NAMED 1999-08-08 18:00:00 NR 27.2000 141.000 main 851 751 O_____________ jtwc_wp WP141999 27.2000 141.000 25 -1 14 335
1999219N25142 1999 59 WP MM NOT_NAMED 1999-08-08 21:00:00 NR 28.0636 140.454 main 741 626 P_____________ WP141999 28.0636 140.454 25 -1 21 332
1999219N25142 1999 59 WP MM NOT_NAMED 1999-08-09 00:00:00 NR 29.0000 139.900 main 626 565 O_____________ jtwc_wp WP141999 29.0000 139.900 25 -1 17 340
1999219N25142 1999 59 WP MM NOT_NAMED 1999-08-09 03:00:00 NR 29.6370 139.810 main 565 499 P_____________ WP141999 29.6370 139.810 25 -1 12 356
1999219N25142 1999 59 WP MM NOT_NAMED 1999-08-09 06:00:00 NR 30.2000 139.800 main 499 430 O_____________ jtwc_wp WP141999 30.2000 139.800 25 -1 13 351
1999219N25142 1999 59 WP MM NOT_NAMED 1999-08-09 09:00:00 NR 30.8872 139.583 main 419 347 P_____________ WP141999 30.8872 139.583 25 -1 14 338
1999219N25142 1999 59 WP MM NOT_NAMED 1999-08-09 12:00:00 NR 31.5000 139.200 main 347 301 O_____________ jtwc_wp WP141999 31.5000 139.200 25 -1 13 320
1999219N25142 1999 59 WP MM NOT_NAMED 1999-08-09 15:00:00 NR 31.8957 138.607 main 301 243 P_____________ WP141999 31.8957 138.607 25 -1 12 304
1999219N25142 1999 59 WP MM NOT_NAMED 1999-08-09 18:00:00 NR 32.2000 138.000 main 243 192 O_____________ jtwc_wp WP141999 32.2000 138.000 25 -1 11 307
1999219N25142 1999 59 WP MM NOT_NAMED 1999-08-09 21:00:00 NR 32.5421 137.604 main 192 143 P_____________ WP141999 32.5421 137.604 25 -1 9 320
1999219N25142 1999 59 WP MM NOT_NAMED 1999-08-10 00:00:00 NR 32.9000 137.300 main 143 98 O_____________ jtwc_wp WP141999 32.9000 137.300 25 -1 9 325
1999219N25142 1999 59 WP MM NOT_NAMED 1999-08-10 03:00:00 NR 33.3000 136.977 main 98 49 P_____________ WP141999 33.3000 136.977 25 -1 9 328
1999219N25142 1999 59 WP MM NOT_NAMED 1999-08-10 06:00:00 NR 33.7000 136.700 main 49 18 O_____________ jtwc_wp WP141999 33.7000 136.700 25 -1 9 331
1999219N25142 1999 59 WP MM NOT_NAMED 1999-08-10 09:00:00 NR 34.0649 136.477 main 18 0 P_____________ WP141999 34.0649 136.477 25 -1 8 335
1999219N25142 1999 59 WP MM NOT_NAMED 1999-08-10 12:00:00 NR 34.4000 136.300 main 0 0 O_____________ jtwc_wp WP141999 34.4000 136.300 25 -1 7 335
1999219N25142 1999 59 WP MM NOT_NAMED 1999-08-10 15:00:00 NR 34.6925 136.127 main 0 0 P_____________ WP141999 34.6925 136.127 22 -1 7 338
1999219N25142 1999 59 WP MM NOT_NAMED 1999-08-10 18:00:00 NR 35.0000 136.000 main 0 0 O_____________ jtwc_wp WP141999 35.0000 136.000 20 -1 7 349
1999219N25142 1999 59 WP MM NOT_NAMED 1999-08-10 21:00:00 NR 35.4074 135.957 main 0 0 P_____________ WP141999 35.4074 135.957 17 -1 8 354
1999219N25142 1999 59 WP MM NOT_NAMED 1999-08-11 00:00:00 NR 35.8000 135.900 main 14 14 O_____________ jtwc_wp WP141999 35.8000 135.900 15 -1 7 345
1999219N25142 1999 59 WP MM NOT_NAMED 1999-08-11 03:00:00 NR 36.0852 135.735 main 29 29 P_____________ WP141999 36.0852 135.735 15 -1 6 327
1999219N25142 1999 59 WP MM NOT_NAMED 1999-08-11 06:00:00 NR 36.3000 135.500 main 53 O_____________ jtwc_wp WP141999 36.3000 135.500 15 -1 6 319

デジタル台風データ・検索

IBTrACS Databaseについて

本データベースは、米国NOAAが公開する1842年以降の世界の熱帯低気圧のベストトラックデータアーカイブInternational Best Track Archive for Climate Stewardship (IBTrACS)を、ウェブで閲覧しやすい形式に変換したものです。

最終更新日:2021-12-06